sensor_id;sensor_type;location;lat;lon;timestamp;pressure;altitude;pressure_sealevel;temperature;humidity
68399;BME280;56258;52.196;13.868;2023-03-08T00:00:19;99381.28;;;19.19;32.29
68399;BME280;56258;52.196;13.868;2023-03-08T00:02:46;99381.50;;;19.18;32.61
68399;BME280;56258;52.196;13.868;2023-03-08T00:05:13;99382.31;;;19.18;31.95
68399;BME280;56258;52.196;13.868;2023-03-08T00:07:39;99394.56;;;19.14;32.30
68399;BME280;56258;52.196;13.868;2023-03-08T00:10:06;99398.72;;;19.17;32.24
68399;BME280;56258;52.196;13.868;2023-03-08T00:12:33;99405.13;;;19.16;31.79
68399;BME280;56258;52.196;13.868;2023-03-08T00:14:59;99405.34;;;19.14;32.22
68399;BME280;56258;52.196;13.868;2023-03-08T00:17:26;99413.22;;;19.16;32.46
68399;BME280;56258;52.196;13.868;2023-03-08T00:19:53;99413.44;;;19.14;31.97
68399;BME280;56258;52.196;13.868;2023-03-08T00:22:19;99416.94;;;19.15;32.42
68399;BME280;56258;52.196;13.868;2023-03-08T00:24:46;99415.69;;;19.17;32.36
68399;BME280;56258;52.196;13.868;2023-03-08T00:27:12;99422.13;;;19.16;32.40
68399;BME280;56258;52.196;13.868;2023-03-08T00:29:39;99417.34;;;19.18;32.34
68399;BME280;56258;52.196;13.868;2023-03-08T00:32:06;99425.22;;;19.20;32.00
68399;BME280;56258;52.196;13.868;2023-03-08T00:34:32;99419.00;;;19.19;32.41
68399;BME280;56258;52.196;13.868;2023-03-08T00:36:59;99415.09;;;19.15;32.33
68399;BME280;56258;52.196;13.868;2023-03-08T00:39:25;99418.59;;;19.16;31.91
68399;BME280;56258;52.196;13.868;2023-03-08T00:41:52;99425.88;;;19.15;31.97
68399;BME280;56258;52.196;13.868;2023-03-08T00:44:19;99432.91;;;19.16;32.48
68399;BME280;56258;52.196;13.868;2023-03-08T00:46:45;99430.22;;;19.16;32.27
68399;BME280;56258;52.196;13.868;2023-03-08T00:49:12;99434.97;;;19.14;32.55
68399;BME280;56258;52.196;13.868;2023-03-08T00:51:39;99435.16;;;19.19;32.44
68399;BME280;56258;52.196;13.868;2023-03-08T00:54:05;99437.69;;;19.14;32.38
68399;BME280;56258;52.196;13.868;2023-03-08T00:56:32;99439.75;;;19.12;32.55
68399;BME280;56258;52.196;13.868;2023-03-08T00:58:58;99440.59;;;19.13;32.04
68399;BME280;56258;52.196;13.868;2023-03-08T01:01:25;99440.81;;;19.11;32.21
68399;BME280;56258;52.196;13.868;2023-03-08T01:03:52;99440.81;;;19.11;32.19
68399;BME280;56258;52.196;13.868;2023-03-08T01:06:18;99452.78;;;19.09;32.05
68399;BME280;56258;52.196;13.868;2023-03-08T01:08:45;99450.53;;;19.12;32.73
68399;BME280;56258;52.196;13.868;2023-03-08T01:11:20;99442.44;;;19.12;31.70
68399;BME280;56258;52.196;13.868;2023-03-08T01:13:49;99448.66;;;19.13;31.93
68399;BME280;56258;52.196;13.868;2023-03-08T01:16:25;99455.09;;;19.12;32.11
68399;BME280;56258;52.196;13.868;2023-03-08T01:18:53;99453.22;;;19.12;32.42
68399;BME280;56258;52.196;13.868;2023-03-08T01:21:20;99454.47;;;19.16;31.61
68399;BME280;56258;52.196;13.868;2023-03-08T01:23:47;99452.16;;;19.20;31.59
68399;BME280;56258;52.196;13.868;2023-03-08T01:26:16;99458.81;;;19.24;32.30
68399;BME280;56258;52.196;13.868;2023-03-08T01:28:44;99466.06;;;19.23;32.38
68399;BME280;56258;52.196;13.868;2023-03-08T01:31:17;99460.03;;;19.21;32.34
68399;BME280;56258;52.196;13.868;2023-03-08T01:33:44;99467.69;;;19.31;32.13
68399;BME280;56258;52.196;13.868;2023-03-08T01:36:13;99467.47;;;19.46;32.03
68399;BME280;56258;52.196;13.868;2023-03-08T01:38:41;99466.63;;;19.65;31.81
68399;BME280;56258;52.196;13.868;2023-03-08T01:41:17;99472.16;;;19.84;31.55
68399;BME280;56258;52.196;13.868;2023-03-08T01:43:44;99460.66;;;20.01;31.28
68399;BME280;56258;52.196;13.868;2023-03-08T01:49:07;99467.38;;;20.30;31.31
68399;BME280;56258;52.196;13.868;2023-03-08T01:51:55;99457.75;;;20.48;30.99
68399;BME280;56258;52.196;13.868;2023-03-08T01:54:26;99466.66;;;20.55;30.50
68399;BME280;56258;52.196;13.868;2023-03-08T01:56:58;99465.34;;;20.64;30.27
68399;BME280;56258;52.196;13.868;2023-03-08T01:59:25;99467.81;;;20.65;30.67
68399;BME280;56258;52.196;13.868;2023-03-08T02:01:53;99474.84;;;20.73;30.53
68399;BME280;56258;52.196;13.868;2023-03-08T02:04:19;99474.56;;;20.81;30.52
68399;BME280;56258;52.196;13.868;2023-03-08T02:06:46;99474.97;;;20.85;30.58
68399;BME280;56258;52.196;13.868;2023-03-08T02:09:12;99478.50;;;20.85;30.36
68399;BME280;56258;52.196;13.868;2023-03-08T02:11:40;99477.44;;;20.86;30.60
68399;BME280;56258;52.196;13.868;2023-03-08T02:14:07;99475.59;;;20.80;30.39
68399;BME280;56258;52.196;13.868;2023-03-08T02:16:34;99475.56;;;20.87;30.86
68399;BME280;56258;52.196;13.868;2023-03-08T02:19:03;99472.53;;;21.02;29.66
68399;BME280;56258;52.196;13.868;2023-03-08T02:21:32;99472.06;;;21.05;30.55
68399;BME280;56258;52.196;13.868;2023-03-08T02:24:04;99464.38;;;21.08;29.80
68399;BME280;56258;52.196;13.868;2023-03-08T02:26:36;99469.97;;;21.07;29.82
68399;BME280;56258;52.196;13.868;2023-03-08T02:29:03;99473.72;;;21.06;30.47
68399;BME280;56258;52.196;13.868;2023-03-08T02:31:29;99476.13;;;20.95;30.69
68399;BME280;56258;52.196;13.868;2023-03-08T02:33:56;99472.19;;;20.91;30.18
68399;BME280;56258;52.196;13.868;2023-03-08T02:36:22;99470.88;;;21.01;30.75
68399;BME280;56258;52.196;13.868;2023-03-08T02:38:49;99478.81;;;20.95;30.11
68399;BME280;56258;52.196;13.868;2023-03-08T02:41:16;99485.25;;;20.94;30.85
68399;BME280;56258;52.196;13.868;2023-03-08T02:43:42;99484.28;;;20.89;30.92
68399;BME280;56258;52.196;13.868;2023-03-08T02:46:13;99482.41;;;20.89;30.50
68399;BME280;56258;52.196;13.868;2023-03-08T02:48:39;99481.94;;;20.92;30.80
68399;BME280;56258;52.196;13.868;2023-03-08T02:51:06;99486.72;;;20.97;30.54
68399;BME280;56258;52.196;13.868;2023-03-08T02:53:33;99485.44;;;21.00;30.24
68399;BME280;56258;52.196;13.868;2023-03-08T02:55:59;99492.50;;;21.01;30.83
68399;BME280;56258;52.196;13.868;2023-03-08T02:58:26;99481.22;;;21.04;30.56
68399;BME280;56258;52.196;13.868;2023-03-08T03:00:52;99485.69;;;21.16;30.63
68399;BME280;56258;52.196;13.868;2023-03-08T03:03:19;99485.31;;;21.13;30.11
68399;BME280;56258;52.196;13.868;2023-03-08T03:05:45;99474.41;;;21.01;30.51
68399;BME280;56258;52.196;13.868;2023-03-08T03:08:12;99484.53;;;20.81;30.75
68399;BME280;56258;52.196;13.868;2023-03-08T03:10:39;99483.63;;;20.62;31.09
68399;BME280;56258;52.196;13.868;2023-03-08T03:13:05;99477.47;;;20.48;30.95
68399;BME280;56258;52.196;13.868;2023-03-08T03:15:32;99486.28;;;20.30;31.82
68399;BME280;56258;52.196;13.868;2023-03-08T03:17:59;99495.22;;;20.24;31.63
68399;BME280;56258;52.196;13.868;2023-03-08T03:20:26;99495.28;;;20.18;31.73
68399;BME280;56258;52.196;13.868;2023-03-08T03:22:52;99496.72;;;20.20;31.45
68399;BME280;56258;52.196;13.868;2023-03-08T03:25:19;99497.16;;;20.17;31.50
68399;BME280;56258;52.196;13.868;2023-03-08T03:27:45;99493.19;;;20.13;31.54
68399;BME280;56258;52.196;13.868;2023-03-08T03:30:12;99498.41;;;20.15;31.54
68399;BME280;56258;52.196;13.868;2023-03-08T03:32:39;99501.09;;;20.15;31.71
68399;BME280;56258;52.196;13.868;2023-03-08T03:35:05;99494.69;;;20.09;31.49
68399;BME280;56258;52.196;13.868;2023-03-08T03:37:35;99503.00;;;20.07;31.57
68399;BME280;56258;52.196;13.868;2023-03-08T03:40:03;99505.09;;;20.05;31.36
68399;BME280;56258;52.196;13.868;2023-03-08T03:42:30;99511.75;;;20.03;31.75
68399;BME280;56258;52.196;13.868;2023-03-08T03:44:56;99519.19;;;20.01;31.65
68399;BME280;56258;52.196;13.868;2023-03-08T03:47:23;99511.75;;;20.03;31.67
68399;BME280;56258;52.196;13.868;2023-03-08T03:49:50;99514.84;;;20.00;31.54
68399;BME280;56258;52.196;13.868;2023-03-08T03:52:16;99508.00;;;19.97;31.62
68399;BME280;56258;52.196;13.868;2023-03-08T03:54:43;99521.09;;;19.94;31.26
68399;BME280;56258;52.196;13.868;2023-03-08T03:57:09;99516.31;;;19.96;31.62
68399;BME280;56258;52.196;13.868;2023-03-08T03:59:36;99526.72;;;19.86;31.43
68399;BME280;56258;52.196;13.868;2023-03-08T04:02:02;99524.25;;;19.84;31.59
68399;BME280;56258;52.196;13.868;2023-03-08T04:04:29;99531.09;;;19.80;32.07
68399;BME280;56258;52.196;13.868;2023-03-08T04:06:56;99526.13;;;19.77;31.66
68399;BME280;56258;52.196;13.868;2023-03-08T04:09:22;99538.78;;;19.76;31.86
68399;BME280;56258;52.196;13.868;2023-03-08T04:11:49;99540.63;;;19.76;31.74
68399;BME280;56258;52.196;13.868;2023-03-08T04:14:15;99539.63;;;19.70;31.73
68399;BME280;56258;52.196;13.868;2023-03-08T04:16:42;99534.63;;;19.67;31.66
68399;BME280;56258;52.196;13.868;2023-03-08T04:19:11;99540.03;;;19.67;31.50
68399;BME280;56258;52.196;13.868;2023-03-08T04:21:38;99542.09;;;19.65;31.60
68399;BME280;56258;52.196;13.868;2023-03-08T04:24:05;99546.28;;;19.61;31.87
68399;BME280;56258;52.196;13.868;2023-03-08T04:26:31;99541.31;;;19.58;31.77
68399;BME280;56258;52.196;13.868;2023-03-08T04:28:58;99545.44;;;19.61;31.66
68399;BME280;56258;52.196;13.868;2023-03-08T04:31:27;99551.88;;;19.60;31.77
68399;BME280;56258;52.196;13.868;2023-03-08T04:33:54;99550.22;;;19.59;31.68
68399;BME280;56258;52.196;13.868;2023-03-08T04:36:21;99544.19;;;19.63;31.66
68399;BME280;56258;52.196;13.868;2023-03-08T04:38:48;99548.34;;;19.59;31.86
68399;BME280;56258;52.196;13.868;2023-03-08T04:41:16;99550.19;;;19.52;31.93
68399;BME280;56258;52.196;13.868;2023-03-08T04:43:53;99554.53;;;19.53;31.71
68399;BME280;56258;52.196;13.868;2023-03-08T04:46:26;99556.19;;;19.54;31.78
68399;BME280;56258;52.196;13.868;2023-03-08T04:48:53;99557.03;;;19.48;31.56
68399;BME280;56258;52.196;13.868;2023-03-08T04:51:23;99562.22;;;19.49;31.78
68399;BME280;56258;52.196;13.868;2023-03-08T04:53:51;99556.22;;;19.47;31.67
68399;BME280;56258;52.196;13.868;2023-03-08T04:56:18;99557.03;;;19.41;32.25
68399;BME280;56258;52.196;13.868;2023-03-08T04:58:44;99554.78;;;19.45;31.86
68399;BME280;56258;52.196;13.868;2023-03-08T05:01:13;99556.22;;;19.41;32.12
68399;BME280;56258;52.196;13.868;2023-03-08T05:03:40;99561.59;;;19.41;31.58
68399;BME280;56258;52.196;13.868;2023-03-08T05:06:07;99567.00;;;19.41;32.11
68399;BME280;56258;52.196;13.868;2023-03-08T05:08:34;99567.00;;;19.41;32.31
68399;BME280;56258;52.196;13.868;2023-03-08T05:11:01;99566.38;;;19.39;32.01
68399;BME280;56258;52.196;13.868;2023-03-08T05:13:30;99567.81;;;19.41;31.75
68399;BME280;56258;52.196;13.868;2023-03-08T05:15:57;99568.66;;;19.42;31.62
68399;BME280;56258;52.196;13.868;2023-03-08T05:18:25;99566.16;;;19.40;31.99
68399;BME280;56258;52.196;13.868;2023-03-08T05:21:14;99563.25;;;19.42;31.56
68399;BME280;56258;52.196;13.868;2023-03-08T05:23:39;99556.63;;;19.38;31.85
68399;BME280;56258;52.196;13.868;2023-03-08T05:26:07;99552.28;;;19.37;31.67
68399;BME280;56258;52.196;13.868;2023-03-08T05:28:35;99560.78;;;19.40;31.82
68399;BME280;56258;52.196;13.868;2023-03-08T05:31:10;99565.53;;;19.38;31.78
68399;BME280;56258;52.196;13.868;2023-03-08T05:33:38;99564.28;;;19.41;31.54
68399;BME280;56258;52.196;13.868;2023-03-08T05:36:05;99569.06;;;19.39;31.91
68399;BME280;56258;52.196;13.868;2023-03-08T05:38:33;99564.50;;;19.39;31.88
68399;BME280;56258;52.196;13.868;2023-03-08T05:41:01;99567.19;;;19.39;31.92
68399;BME280;56258;52.196;13.868;2023-03-08T05:43:28;99566.16;;;19.40;31.68
68399;BME280;56258;52.196;13.868;2023-03-08T05:46:02;99570.50;;;19.41;31.86
68399;BME280;56258;52.196;13.868;2023-03-08T05:48:30;99568.84;;;19.40;31.74
68399;BME280;56258;52.196;13.868;2023-03-08T05:50:57;99574.03;;;19.42;32.07
68399;BME280;56258;52.196;13.868;2023-03-08T05:53:23;99571.97;;;19.44;31.23
68399;BME280;56258;52.196;13.868;2023-03-08T05:55:50;99578.16;;;19.44;31.33
68399;BME280;56258;52.196;13.868;2023-03-08T05:58:17;99576.34;;;19.45;31.69
68399;BME280;56258;52.196;13.868;2023-03-08T06:00:43;99568.88;;;19.47;31.82
68399;BME280;56258;52.196;13.868;2023-03-08T06:03:10;99564.31;;;19.47;31.57
68399;BME280;56258;52.196;13.868;2023-03-08T06:05:36;99570.53;;;19.48;31.46
68399;BME280;56258;52.196;13.868;2023-03-08T06:08:03;99567.41;;;19.51;31.52
68399;BME280;56258;52.196;13.868;2023-03-08T06:10:30;99569.47;;;19.49;31.56
68399;BME280;56258;52.196;13.868;2023-03-08T06:12:57;99578.00;;;19.46;31.58
68399;BME280;56258;52.196;13.868;2023-03-08T06:15:23;99569.91;;;19.46;31.63
68399;BME280;56258;52.196;13.868;2023-03-08T06:17:53;99584.41;;;19.45;31.73
68399;BME280;56258;52.196;13.868;2023-03-08T06:20:20;99585.44;;;19.44;31.98
68399;BME280;56258;52.196;13.868;2023-03-08T06:22:46;99579.03;;;19.45;31.67
68399;BME280;56258;52.196;13.868;2023-03-08T06:25:13;99579.88;;;19.45;31.56
68399;BME280;56258;52.196;13.868;2023-03-08T06:27:40;99580.69;;;19.46;31.37
68399;BME280;56258;52.196;13.868;2023-03-08T06:30:07;99581.09;;;19.43;31.45
68399;BME280;56258;52.196;13.868;2023-03-08T06:32:34;99582.75;;;19.44;31.70
68399;BME280;56258;52.196;13.868;2023-03-08T06:35:03;99583.78;;;19.43;31.81
68399;BME280;56258;52.196;13.868;2023-03-08T06:37:33;99595.59;;;19.48;31.54
68399;BME280;56258;52.196;13.868;2023-03-08T06:40:00;99584.59;;;19.43;31.50
68399;BME280;56258;52.196;13.868;2023-03-08T06:42:27;99590.44;;;19.47;31.91
68399;BME280;56258;52.196;13.868;2023-03-08T06:45:08;99588.13;;;19.44;31.80
68399;BME280;56258;52.196;13.868;2023-03-08T06:47:35;99599.75;;;19.51;31.64
68399;BME280;56258;52.196;13.868;2023-03-08T06:50:02;99597.88;;;19.51;31.97
68399;BME280;56258;52.196;13.868;2023-03-08T06:52:28;99601.03;;;19.62;31.89
68399;BME280;56258;52.196;13.868;2023-03-08T06:55:03;99594.16;;;19.72;31.89
68399;BME280;56258;52.196;13.868;2023-03-08T06:57:30;99599.34;;;19.74;31.90
68399;BME280;56258;52.196;13.868;2023-03-08T06:59:57;99592.91;;;19.75;31.70
68399;BME280;56258;52.196;13.868;2023-03-08T07:02:23;99591.88;;;19.76;31.26
68399;BME280;56258;52.196;13.868;2023-03-08T07:04:50;99580.66;;;19.79;31.85
68399;BME280;56258;52.196;13.868;2023-03-08T07:07:16;99576.09;;;19.79;31.82
68399;BME280;56258;52.196;13.868;2023-03-08T07:09:43;99572.38;;;19.80;31.90
68399;BME280;56258;52.196;13.868;2023-03-08T07:12:10;99578.59;;;19.81;32.48
68399;BME280;56258;52.196;13.868;2023-03-08T07:14:36;99569.03;;;19.85;31.73
68399;BME280;56258;52.196;13.868;2023-03-08T07:17:03;99570.31;;;19.83;31.25
68399;BME280;56258;52.196;13.868;2023-03-08T07:19:30;99576.53;;;19.83;31.79
68399;BME280;56258;52.196;13.868;2023-03-08T07:21:56;99571.97;;;19.84;31.74
68399;BME280;56258;52.196;13.868;2023-03-08T07:24:23;99576.75;;;19.81;31.61
68399;BME280;56258;52.196;13.868;2023-03-08T07:26:49;99577.13;;;19.78;31.35
68399;BME280;56258;52.196;13.868;2023-03-08T07:29:16;99579.00;;;19.78;31.83
68399;BME280;56258;52.196;13.868;2023-03-08T07:31:43;99586.06;;;19.79;32.08
68399;BME280;56258;52.196;13.868;2023-03-08T07:34:09;99586.47;;;19.76;31.76
68399;BME280;56258;52.196;13.868;2023-03-08T07:36:36;99587.91;;;19.78;31.52
68399;BME280;56258;52.196;13.868;2023-03-08T07:39:05;99591.88;;;19.76;31.74
68399;BME280;56258;52.196;13.868;2023-03-08T07:41:31;99593.97;;;19.74;31.72
68399;BME280;56258;52.196;13.868;2023-03-08T07:44:00;99591.03;;;19.75;31.63
68399;BME280;56258;52.196;13.868;2023-03-08T07:46:28;99593.75;;;19.75;31.64
68399;BME280;56258;52.196;13.868;2023-03-08T07:48:55;99597.66;;;19.79;31.57
68399;BME280;56258;52.196;13.868;2023-03-08T07:51:21;99594.16;;;19.79;31.17
68399;BME280;56258;52.196;13.868;2023-03-08T07:53:50;99603.28;;;19.85;31.61
68399;BME280;56258;52.196;13.868;2023-03-08T07:56:17;99605.97;;;19.85;31.37
68399;BME280;56258;52.196;13.868;2023-03-08T07:58:44;99601.19;;;19.87;31.36
68399;BME280;56258;52.196;13.868;2023-03-08T08:01:12;99604.50;;;19.95;30.77
68399;BME280;56258;52.196;13.868;2023-03-08T08:03:39;99595.38;;;19.96;31.37
68399;BME280;56258;52.196;13.868;2023-03-08T08:06:06;99593.94;;;19.94;30.83
68399;BME280;56258;52.196;13.868;2023-03-08T08:08:33;99593.50;;;19.97;30.77
68399;BME280;56258;52.196;13.868;2023-03-08T08:11:00;99601.16;;;20.00;30.66
68399;BME280;56258;52.196;13.868;2023-03-08T08:13:26;99605.31;;;20.02;31.08
68399;BME280;56258;52.196;13.868;2023-03-08T08:15:57;99603.66;;;20.08;30.41
68399;BME280;56258;52.196;13.868;2023-03-08T08:18:25;99604.69;;;20.07;30.48
68399;BME280;56258;52.196;13.868;2023-03-08T08:20:59;99592.84;;;20.15;30.66
68399;BME280;56258;52.196;13.868;2023-03-08T08:23:27;99595.72;;;20.13;30.43
68399;BME280;56258;52.196;13.868;2023-03-08T08:25:53;99592.00;;;20.14;30.52
68399;BME280;56258;52.196;13.868;2023-03-08T08:28:22;99581.00;;;20.16;30.58
68399;BME280;56258;52.196;13.868;2023-03-08T08:30:57;99578.09;;;20.17;30.73
68399;BME280;56258;52.196;13.868;2023-03-08T08:33:24;99580.97;;;20.29;29.90
68399;BME280;56258;52.196;13.868;2023-03-08T08:35:50;99580.09;;;20.35;30.31
68399;BME280;56258;52.196;13.868;2023-03-08T08:38:17;99586.88;;;20.57;29.58
68399;BME280;56258;52.196;13.868;2023-03-08T08:40:44;99584.63;;;20.54;29.74
68399;BME280;56258;52.196;13.868;2023-03-08T08:43:10;99576.63;;;20.21;30.34
68399;BME280;56258;52.196;13.868;2023-03-08T08:45:48;99572.94;;;20.09;30.91
68399;BME280;56258;52.196;13.868;2023-03-08T08:48:18;99568.06;;;20.31;30.03
68399;BME280;56258;52.196;13.868;2023-03-08T08:50:45;99563.13;;;20.28;30.09
68399;BME280;56258;52.196;13.868;2023-03-08T08:53:12;99562.25;;;20.34;29.99
68399;BME280;56258;52.196;13.868;2023-03-08T08:55:38;99558.53;;;20.28;29.96
68399;BME280;56258;52.196;13.868;2023-03-08T08:58:07;99557.13;;;20.19;30.28
68399;BME280;56258;52.196;13.868;2023-03-08T09:00:35;99555.69;;;20.17;30.63
68399;BME280;56258;52.196;13.868;2023-03-08T09:03:03;99544.28;;;20.15;30.64
68399;BME280;56258;52.196;13.868;2023-03-08T09:05:31;99539.16;;;20.51;29.86
68399;BME280;56258;52.196;13.868;2023-03-08T09:07:59;99539.56;;;20.86;29.43
68399;BME280;56258;52.196;13.868;2023-03-08T09:10:28;99539.72;;;21.23;28.36
68399;BME280;56258;52.196;13.868;2023-03-08T09:12:55;99537.28;;;21.40;28.83
68399;BME280;56258;52.196;13.868;2023-03-08T09:15:25;99535.25;;;21.60;27.93
68399;BME280;56258;52.196;13.868;2023-03-08T09:17:52;99532.75;;;21.09;29.07
68399;BME280;56258;52.196;13.868;2023-03-08T09:20:19;99532.28;;;20.87;29.05
68399;BME280;56258;52.196;13.868;2023-03-08T09:22:48;99529.03;;;20.78;29.53
68399;BME280;56258;52.196;13.868;2023-03-08T09:25:15;99530.22;;;20.82;29.41
68399;BME280;56258;52.196;13.868;2023-03-08T09:27:44;99533.22;;;20.74;29.51
68399;BME280;56258;52.196;13.868;2023-03-08T09:30:13;99532.03;;;20.63;29.45
68399;BME280;56258;52.196;13.868;2023-03-08T09:32:40;99522.34;;;20.81;29.37
68399;BME280;56258;52.196;13.868;2023-03-08T09:35:07;99529.13;;;20.96;28.81
68399;BME280;56258;52.196;13.868;2023-03-08T09:37:34;99521.38;;;20.68;29.65
68399;BME280;56258;52.196;13.868;2023-03-08T09:40:00;99521.91;;;20.52;29.84
68399;BME280;56258;52.196;13.868;2023-03-08T09:42:32;99533.16;;;20.43;29.91
68399;BME280;56258;52.196;13.868;2023-03-08T09:48:16;99518.97;;;20.09;30.28
68399;BME280;56258;52.196;13.868;2023-03-08T09:50:48;99526.28;;;19.95;31.02
68399;BME280;56258;52.196;13.868;2023-03-08T09:53:40;99522.75;;;19.95;30.51
68399;BME280;56258;52.196;13.868;2023-03-08T09:56:45;99512.16;;;20.00;30.86
68399;BME280;56258;52.196;13.868;2023-03-08T10:04:57;99508.00;;;19.97;30.70
68399;BME280;56258;52.196;13.868;2023-03-08T10:13:29;99497.09;;;20.24;30.10
68399;BME280;56258;52.196;13.868;2023-03-08T10:18:49;99485.31;;;20.11;30.45
68399;BME280;56258;52.196;13.868;2023-03-08T10:21:19;99484.91;;;20.15;30.23
68399;BME280;56258;52.196;13.868;2023-03-08T10:23:58;99478.78;;;20.32;30.26
68399;BME280;56258;52.196;13.868;2023-03-08T10:26:26;99482.69;;;20.50;29.99
68399;BME280;56258;52.196;13.868;2023-03-08T10:28:53;99482.00;;;21.11;29.27
68399;BME280;56258;52.196;13.868;2023-03-08T10:31:24;99481.75;;;21.62;28.03
68399;BME280;56258;52.196;13.868;2023-03-08T10:36:48;99477.22;;;23.01;26.27
68399;BME280;56258;52.196;13.868;2023-03-08T10:39:16;99489.75;;;22.72;26.57
68399;BME280;56258;52.196;13.868;2023-03-08T10:41:53;99478.72;;;22.55;26.82
68399;BME280;56258;52.196;13.868;2023-03-08T10:44:34;99473.50;;;22.42;27.12
68399;BME280;56258;52.196;13.868;2023-03-08T10:47:27;99467.38;;;22.35;27.23
68399;BME280;56258;52.196;13.868;2023-03-08T10:50:20;99470.66;;;22.37;27.24
68399;BME280;56258;52.196;13.868;2023-03-08T10:52:48;99466.53;;;22.34;27.07
68399;BME280;56258;52.196;13.868;2023-03-08T10:55:26;99470.09;;;21.98;27.28
68399;BME280;56258;52.196;13.868;2023-03-08T10:57:59;99460.19;;;21.55;27.81
68399;BME280;56258;52.196;13.868;2023-03-08T11:03:17;99446.06;;;21.10;28.28
68399;BME280;56258;52.196;13.868;2023-03-08T11:05:59;99443.06;;;20.93;29.32
68399;BME280;56258;52.196;13.868;2023-03-08T11:08:36;99425.78;;;20.76;28.44
68399;BME280;56258;52.196;13.868;2023-03-08T11:13:37;99420.44;;;20.38;29.80
68399;BME280;56258;52.196;13.868;2023-03-08T11:16:11;99419.66;;;20.24;29.72
68399;BME280;56258;52.196;13.868;2023-03-08T11:18:57;99423.19;;;20.25;30.04
68399;BME280;56258;52.196;13.868;2023-03-08T11:21:47;99428.72;;;20.36;29.75
68399;BME280;56258;52.196;13.868;2023-03-08T11:33:03;99409.38;;;20.08;29.98
68399;BME280;56258;52.196;13.868;2023-03-08T11:38:11;99401.97;;;19.97;30.12
68399;BME280;56258;52.196;13.868;2023-03-08T11:40:46;99400.09;;;19.97;30.55
68399;BME280;56258;52.196;13.868;2023-03-08T11:57:33;99368.56;;;19.98;30.56
68399;BME280;56258;52.196;13.868;2023-03-08T12:00:37;99366.53;;;19.93;30.66
68399;BME280;56258;52.196;13.868;2023-03-08T12:03:16;99360.69;;;19.96;30.14
68399;BME280;56258;52.196;13.868;2023-03-08T12:05:50;99362.13;;;19.99;30.80
68399;BME280;56258;52.196;13.868;2023-03-08T12:08:38;99359.19;;;20.00;30.62
68399;BME280;56258;52.196;13.868;2023-03-08T12:11:12;99346.75;;;19.99;30.73
68399;BME280;56258;52.196;13.868;2023-03-08T12:13:57;99345.78;;;19.94;30.20
68399;BME280;56258;52.196;13.868;2023-03-08T12:16:48;99343.91;;;19.94;30.27
68399;BME280;56258;52.196;13.868;2023-03-08T12:19:29;99337.91;;;19.92;30.72
68399;BME280;56258;52.196;13.868;2023-03-08T12:32:37;99321.75;;;19.86;30.43
68399;BME280;56258;52.196;13.868;2023-03-08T12:35:22;99315.75;;;19.84;30.85
68399;BME280;56258;52.196;13.868;2023-03-08T12:38:04;99309.97;;;19.80;31.07
68399;BME280;56258;52.196;13.868;2023-03-08T12:40:44;99316.44;;;19.72;30.70
68399;BME280;56258;52.196;13.868;2023-03-08T12:48:25;99305.44;;;19.74;31.39
68399;BME280;56258;52.196;13.868;2023-03-08T12:56:27;99305.88;;;19.71;30.89
68399;BME280;56258;52.196;13.868;2023-03-08T13:01:40;99312.72;;;19.67;31.00
68399;BME280;56258;52.196;13.868;2023-03-08T13:07:35;99301.69;;;19.75;30.62
68399;BME280;56258;52.196;13.868;2023-03-08T13:10:21;99308.59;;;19.64;31.14
68399;BME280;56258;52.196;13.868;2023-03-08T13:15:25;99310.28;;;19.59;31.20
68399;BME280;56258;52.196;13.868;2023-03-08T13:18:02;99305.13;;;19.57;31.13
68399;BME280;56258;52.196;13.868;2023-03-08T13:23:32;99308.44;;;19.59;31.33
68399;BME280;56258;52.196;13.868;2023-03-08T13:28:47;99314.41;;;19.61;31.18
68399;BME280;56258;52.196;13.868;2023-03-08T13:31:22;99312.94;;;19.65;31.05
68399;BME280;56258;52.196;13.868;2023-03-08T13:33:53;99317.69;;;19.70;31.07
68399;BME280;56258;52.196;13.868;2023-03-08T13:36:28;99313.97;;;19.71;30.43
68399;BME280;56258;52.196;13.868;2023-03-08T13:41:41;99321.16;;;19.77;30.74
68399;BME280;56258;52.196;13.868;2023-03-08T13:44:25;99311.41;;;19.83;30.85
68399;BME280;56258;52.196;13.868;2023-03-08T13:46:54;99313.69;;;19.79;31.31
68399;BME280;56258;52.196;13.868;2023-03-08T13:49:25;99322.81;;;19.78;31.06
68399;BME280;56258;52.196;13.868;2023-03-08T13:51:55;99320.94;;;19.78;30.93
68399;BME280;56258;52.196;13.868;2023-03-08T13:54:35;99317.44;;;19.78;31.32
68399;BME280;56258;52.196;13.868;2023-03-08T13:57:14;99311.81;;;19.79;31.02
68399;BME280;56258;52.196;13.868;2023-03-08T13:59:51;99306.25;;;19.74;31.38
68399;BME280;56258;52.196;13.868;2023-03-08T14:02:22;99306.25;;;19.74;31.22
68399;BME280;56258;52.196;13.868;2023-03-08T14:04:49;99301.91;;;19.73;31.64
68399;BME280;56258;52.196;13.868;2023-03-08T14:07:27;99304.44;;;19.68;31.30
68399;BME280;56258;52.196;13.868;2023-03-08T14:09:55;99301.94;;;19.67;31.22
68399;BME280;56258;52.196;13.868;2023-03-08T14:12:29;99308.59;;;19.64;30.74
68399;BME280;56258;52.196;13.868;2023-03-08T14:15:02;99308.59;;;19.64;31.19
68399;BME280;56258;52.196;13.868;2023-03-08T14:17:33;99311.72;;;19.54;31.47
68399;BME280;56258;52.196;13.868;2023-03-08T14:20:16;99305.09;;;19.50;31.70
68399;BME280;56258;52.196;13.868;2023-03-08T14:22:49;99296.63;;;19.47;31.76
68399;BME280;56258;52.196;13.868;2023-03-08T14:25:30;99289.97;;;19.49;31.56
68399;BME280;56258;52.196;13.868;2023-03-08T14:27:57;99286.69;;;19.41;31.71
68399;BME280;56258;52.196;13.868;2023-03-08T14:30:26;99284.59;;;19.43;31.75
68399;BME280;56258;52.196;13.868;2023-03-08T14:33:03;99273.66;;;19.38;31.84
68399;BME280;56258;52.196;13.868;2023-03-08T14:35:36;99269.53;;;19.35;31.51